createdAt,value
2017-11-23T00:00:49.649Z,0
2017-11-23T00:01:49.682Z,0
2017-11-23T00:02:49.655Z,0
2017-11-23T00:03:49.643Z,0
2017-11-23T00:04:49.633Z,0
2017-11-23T00:05:49.615Z,0
2017-11-23T00:06:50.291Z,3.9
2017-11-23T00:07:49.635Z,3.9
2017-11-23T00:08:49.640Z,0
2017-11-23T00:09:49.713Z,0
2017-11-23T00:10:49.619Z,0
2017-11-23T00:11:50.234Z,1.8
2017-11-23T00:12:49.605Z,3.9
2017-11-23T00:13:49.717Z,1.8
2017-11-23T00:14:49.663Z,0
2017-11-23T00:15:49.632Z,0
2017-11-23T00:16:49.621Z,0
2017-11-23T00:17:49.626Z,0
2017-11-23T00:18:50.309Z,0
2017-11-23T00:19:49.683Z,0
2017-11-23T00:20:49.617Z,0
2017-11-23T00:21:49.624Z,0
2017-11-23T00:22:49.698Z,0
2017-11-23T00:23:49.704Z,0
2017-11-23T00:24:49.631Z,0
2017-11-23T00:25:49.631Z,0
2017-11-23T00:26:49.632Z,0
2017-11-23T00:27:49.637Z,0
2017-11-23T00:28:49.794Z,0
2017-11-23T00:29:49.638Z,0
2017-11-23T00:30:49.622Z,0
2017-11-23T00:31:49.635Z,0
2017-11-23T00:32:49.709Z,0
2017-11-23T00:33:50.636Z,0
2017-11-23T00:34:49.619Z,0
2017-11-23T00:35:49.672Z,0
2017-11-23T00:36:49.699Z,0
2017-11-23T00:37:49.623Z,0
2017-11-23T00:38:49.671Z,0
2017-11-23T00:39:49.681Z,0
2017-11-23T00:40:49.640Z,0
2017-11-23T00:41:49.603Z,0
2017-11-23T00:42:49.609Z,0
2017-11-23T00:43:49.829Z,0
2017-11-23T00:44:50.605Z,0
2017-11-23T00:45:49.628Z,0
2017-11-23T00:46:49.617Z,0
2017-11-23T00:47:49.629Z,0
2017-11-23T00:48:50.700Z,0
2017-11-23T00:49:49.648Z,0
2017-11-23T00:50:49.599Z,0
2017-11-23T00:51:49.635Z,0
2017-11-23T00:52:49.621Z,0
2017-11-23T00:53:49.708Z,0
2017-11-23T00:54:49.626Z,0
2017-11-23T00:55:49.614Z,0
2017-11-23T00:56:49.630Z,0
2017-11-23T00:57:49.582Z,0
2017-11-23T00:58:49.662Z,0
2017-11-23T00:59:49.963Z,0
2017-11-23T01:00:49.560Z,0
2017-11-23T01:01:49.649Z,0
2017-11-23T01:02:49.601Z,0
2017-11-23T01:03:49.661Z,0
2017-11-23T01:04:49.607Z,0
2017-11-23T01:05:49.672Z,0
2017-11-23T01:06:49.611Z,0
2017-11-23T01:07:49.622Z,0
2017-11-23T01:08:49.720Z,0
2017-11-23T01:09:49.601Z,0
2017-11-23T01:10:49.566Z,0
2017-11-23T01:11:49.652Z,0
2017-11-23T01:12:49.589Z,0
2017-11-23T01:13:49.655Z,0
2017-11-23T01:14:49.627Z,0
2017-11-23T01:15:49.574Z,0
2017-11-23T01:16:49.580Z,0
2017-11-23T01:17:49.618Z,0
2017-11-23T01:18:49.634Z,0
2017-11-23T01:19:49.588Z,0
2017-11-23T01:20:49.603Z,0
2017-11-23T01:21:49.678Z,3.9
2017-11-23T01:22:49.559Z,0
2017-11-23T01:23:49.562Z,0
2017-11-23T01:24:49.629Z,0
2017-11-23T01:25:49.589Z,0
2017-11-23T01:26:49.544Z,3.9
2017-11-23T01:27:49.571Z,0
2017-11-23T01:28:49.614Z,1.8
2017-11-23T01:29:49.606Z,0
2017-11-23T01:30:49.607Z,1.8
2017-11-23T01:31:49.561Z,3.9
2017-11-23T01:32:49.560Z,6.6
2017-11-23T01:33:49.660Z,3.9
2017-11-23T01:34:49.613Z,3.9
2017-11-23T01:35:49.566Z,1.8
2017-11-23T01:36:49.643Z,3.9
2017-11-23T01:37:49.550Z,6.6
2017-11-23T01:38:49.577Z,1.8
2017-11-23T01:39:49.690Z,0
2017-11-23T01:40:49.591Z,3.9
2017-11-23T01:41:49.549Z,1.8
2017-11-23T01:42:49.620Z,1.8
2017-11-23T01:43:49.579Z,0
2017-11-23T01:44:49.639Z,6.6
2017-11-23T01:45:49.575Z,3.9
2017-11-23T01:46:49.627Z,1.8
2017-11-23T01:47:49.588Z,3.9
2017-11-23T01:48:49.554Z,3.9
2017-11-23T01:49:49.676Z,0
2017-11-23T01:50:50.090Z,3.9
2017-11-23T01:51:49.590Z,0
2017-11-23T01:52:49.644Z,1.8
2017-11-23T01:53:49.589Z,1.8
2017-11-23T01:54:49.647Z,0
2017-11-23T01:55:49.663Z,0
2017-11-23T01:56:49.611Z,1.8
2017-11-23T01:57:49.573Z,3.9
2017-11-23T01:58:49.670Z,0
2017-11-23T01:59:49.701Z,1.8
2017-11-23T02:05:09.880Z,0
2017-11-23T02:05:49.582Z,1.8
2017-11-23T02:06:49.556Z,0
2017-11-23T02:07:49.610Z,9.5
2017-11-23T02:08:49.567Z,1.8
2017-11-23T02:09:49.573Z,3.9
2017-11-23T02:10:49.623Z,0
2017-11-23T02:11:49.583Z,3.9
2017-11-23T02:12:49.579Z,3.9
2017-11-23T02:13:49.619Z,0
2017-11-23T02:14:49.559Z,9.5
2017-11-23T02:15:49.547Z,6.6
2017-11-23T02:16:49.615Z,0
2017-11-23T02:17:49.569Z,0
2017-11-23T02:18:49.556Z,1.8
2017-11-23T02:19:49.607Z,0
2017-11-23T02:25:12.270Z,0
2017-11-23T02:25:49.543Z,0
2017-11-23T02:26:49.610Z,1.8
2017-11-23T02:27:50.517Z,0
2017-11-23T02:28:49.559Z,9.5
2017-11-23T02:29:49.624Z,0
2017-11-23T02:30:49.609Z,0
2017-11-23T02:31:50.150Z,0
2017-11-23T02:32:49.615Z,0
2017-11-23T02:33:49.537Z,0
2017-11-23T02:34:49.524Z,1.8
2017-11-23T02:35:49.703Z,0
2017-11-23T02:36:49.595Z,0
2017-11-23T02:37:49.529Z,1.8
2017-11-23T02:38:49.582Z,1.8
2017-11-23T02:39:49.611Z,0
2017-11-23T02:40:49.609Z,3.9
2017-11-23T02:41:49.547Z,0
2017-11-23T02:42:49.619Z,0
2017-11-23T02:43:49.528Z,3.9
2017-11-23T02:44:49.496Z,0
2017-11-23T02:45:49.680Z,1.8
2017-11-23T02:46:50.526Z,0
2017-11-23T02:47:49.559Z,0
2017-11-23T02:48:49.556Z,0
2017-11-23T02:49:49.556Z,0
2017-11-23T02:50:49.755Z,1.8
2017-11-23T02:51:49.618Z,6.6
2017-11-23T02:52:49.556Z,0
2017-11-23T02:53:49.561Z,1.8
2017-11-23T02:54:49.570Z,0
2017-11-23T02:55:49.580Z,0
2017-11-23T02:56:49.610Z,0
2017-11-23T02:57:49.509Z,1.8
2017-11-23T02:58:49.524Z,1.8
2017-11-23T02:59:49.619Z,6.6
2017-11-23T03:00:49.602Z,3.9
2017-11-23T03:01:49.523Z,0
2017-11-23T03:02:49.588Z,0
2017-11-23T03:03:49.536Z,0
2017-11-23T03:04:49.543Z,0
2017-11-23T03:05:50.265Z,1.8
2017-11-23T03:06:49.553Z,0
2017-11-23T03:07:49.541Z,0
2017-11-23T03:08:49.565Z,1.8
2017-11-23T03:09:49.530Z,0
2017-11-23T03:10:49.599Z,1.8
2017-11-23T03:11:49.565Z,0
2017-11-23T03:12:49.567Z,3.9
2017-11-23T03:13:49.504Z,1.8
2017-11-23T03:14:50.186Z,1.8
2017-11-23T03:15:49.625Z,0
2017-11-23T03:16:49.541Z,3.9
2017-11-23T03:17:49.598Z,0
2017-11-23T03:18:49.565Z,1.8
2017-11-23T03:20:24.122Z,6.6
2017-11-23T03:20:49.625Z,3.9
2017-11-23T03:21:49.495Z,12.4
2017-11-23T03:22:49.535Z,6.6
2017-11-23T03:23:51.401Z,0
2017-11-23T03:24:49.580Z,6.6
2017-11-23T03:25:49.517Z,0
2017-11-23T03:26:49.488Z,0
2017-11-23T03:27:49.579Z,1.8
2017-11-23T03:28:49.489Z,3.9
2017-11-23T03:29:49.512Z,0
2017-11-23T03:30:49.550Z,12.4
2017-11-23T03:31:49.629Z,0
2017-11-23T03:32:49.627Z,0
2017-11-23T03:33:49.514Z,0
2017-11-23T03:34:49.576Z,0
2017-11-23T03:35:49.569Z,6.6
2017-11-23T03:36:49.502Z,0
2017-11-23T03:37:49.581Z,0
2017-11-23T03:38:49.501Z,6.6
2017-11-23T03:39:49.499Z,3.9
2017-11-23T03:40:49.575Z,3.9
2017-11-23T03:41:49.513Z,1.8
2017-11-23T03:42:49.499Z,6.6
2017-11-23T03:43:49.490Z,1.8
2017-11-23T03:44:49.591Z,0
2017-11-23T03:45:49.542Z,0
2017-11-23T03:46:49.504Z,3.9
2017-11-23T03:47:49.505Z,0
2017-11-23T03:48:49.531Z,3.9
2017-11-23T03:49:49.568Z,0
2017-11-23T03:50:49.542Z,0
2017-11-23T03:51:49.486Z,0
2017-11-23T03:52:49.571Z,0
2017-11-23T03:53:49.517Z,3.9
2017-11-23T03:54:49.499Z,3.9
2017-11-23T03:55:49.532Z,3.9
2017-11-23T03:56:49.574Z,1.8
2017-11-23T03:57:49.596Z,0
2017-11-23T03:58:49.537Z,1.8
2017-11-23T03:59:49.527Z,0
2017-11-23T04:00:49.536Z,0
2017-11-23T04:01:49.579Z,6.6
2017-11-23T04:02:49.569Z,0
2017-11-23T04:03:49.511Z,1.8
2017-11-23T04:04:49.586Z,9.5
2017-11-23T04:05:49.525Z,1.8
2017-11-23T04:06:49.614Z,1.8
2017-11-23T04:07:49.507Z,0
2017-11-23T04:08:49.492Z,0
2017-11-23T04:09:49.540Z,15.4
2017-11-23T04:10:49.499Z,6.6
2017-11-23T04:11:49.569Z,9.5
2017-11-23T04:12:50.259Z,3.9
2017-11-23T04:13:49.491Z,1.8
2017-11-23T04:14:49.530Z,1.8
2017-11-23T04:15:50.151Z,9.5
2017-11-23T04:16:49.544Z,0
2017-11-23T04:17:49.518Z,3.9
2017-11-23T04:18:49.525Z,12.4
2017-11-23T04:19:49.642Z,1.8
2017-11-23T04:20:49.476Z,9.5
2017-11-23T04:21:49.586Z,6.6
2017-11-23T04:22:52.552Z,9.5
2017-11-23T04:23:49.564Z,3.9
2017-11-23T04:24:49.465Z,3.9
2017-11-23T04:25:49.515Z,1.8
2017-11-23T04:26:49.614Z,0
2017-11-23T04:27:49.553Z,1.8
2017-11-23T04:28:49.497Z,1.8
2017-11-23T04:29:49.480Z,0
2017-11-23T04:30:49.489Z,0
2017-11-23T04:31:49.623Z,1.8
2017-11-23T04:32:49.489Z,0
2017-11-23T04:33:49.490Z,0
2017-11-23T04:34:49.549Z,3.9
2017-11-23T04:35:49.492Z,6.6
2017-11-23T04:36:49.529Z,6.6
2017-11-23T04:37:49.519Z,3.9
2017-11-23T04:38:49.612Z,1.8
2017-11-23T04:39:49.511Z,1.8
2017-11-23T04:40:49.493Z,0
2017-11-23T04:41:49.510Z,0
2017-11-23T04:42:49.570Z,6.6
2017-11-23T04:43:49.480Z,1.8
2017-11-23T04:44:49.483Z,1.8
2017-11-23T04:45:49.986Z,1.8
2017-11-23T04:46:49.603Z,1.8
2017-11-23T04:47:49.485Z,3.9
2017-11-23T04:48:49.484Z,0
2017-11-23T04:49:49.470Z,0
2017-11-23T04:50:49.566Z,1.8
2017-11-23T04:51:49.589Z,1.8
2017-11-23T04:52:49.501Z,1.8
2017-11-23T04:53:49.496Z,1.8
2017-11-23T04:54:49.555Z,3.9
2017-11-23T04:55:50.173Z,3.9
2017-11-23T04:56:49.549Z,15.4
2017-11-23T04:59:55.654Z,6.6
2017-11-23T05:00:52.732Z,9.5
2017-11-23T05:01:52.773Z,0
2017-11-23T05:02:52.787Z,1.8
2017-11-23T05:03:52.706Z,3.9
2017-11-23T05:04:52.680Z,3.9
2017-11-23T05:05:52.768Z,0
2017-11-23T05:06:52.777Z,0
2017-11-23T05:07:52.706Z,0
2017-11-23T05:08:52.792Z,1.8
2017-11-23T05:09:52.710Z,1.8
2017-11-23T05:10:52.739Z,3.9
2017-11-23T05:11:52.816Z,6.6
2017-11-23T05:12:52.703Z,3.9
2017-11-23T05:13:52.737Z,15.4
2017-11-23T05:14:52.747Z,3.9
2017-11-23T05:15:52.702Z,1.8
2017-11-23T05:16:52.839Z,6.6
2017-11-23T05:17:52.697Z,1.8
2017-11-23T05:18:52.697Z,0
2017-11-23T05:19:52.784Z,3.9
2017-11-23T05:20:52.715Z,0
2017-11-23T05:21:52.907Z,0
2017-11-23T05:23:27.470Z,1.8
2017-11-23T05:23:52.738Z,0
2017-11-23T05:24:52.716Z,3.9
2017-11-23T05:25:52.740Z,6.6
2017-11-23T05:26:52.845Z,1.8
2017-11-23T05:27:52.704Z,1.8
2017-11-23T05:28:52.666Z,6.6
2017-11-23T05:29:52.678Z,1.8
2017-11-23T05:30:52.791Z,6.6
2017-11-23T05:31:52.704Z,0
2017-11-23T05:32:52.689Z,0
2017-11-23T05:33:52.771Z,3.9
2017-11-23T05:34:52.696Z,6.6
2017-11-23T05:35:52.752Z,0
2017-11-23T05:36:52.737Z,1.8
2017-11-23T05:37:52.678Z,3.9
2017-11-23T05:38:52.695Z,1.8
2017-11-23T05:39:52.677Z,9.5
2017-11-23T05:40:52.725Z,0
2017-11-23T05:41:52.749Z,0
2017-11-23T05:42:52.724Z,1.8
2017-11-23T05:43:53.228Z,1.8
2017-11-23T05:44:52.690Z,0
2017-11-23T05:45:52.734Z,1.8
2017-11-23T05:46:52.738Z,1.8
2017-11-23T05:47:52.741Z,0
2017-11-23T05:48:52.731Z,0
2017-11-23T05:49:52.729Z,0
2017-11-23T05:50:52.661Z,0
2017-11-23T05:51:52.761Z,0
2017-11-23T05:52:52.757Z,0
2017-11-23T05:53:52.673Z,0
2017-11-23T05:54:52.706Z,0
2017-11-23T05:55:52.762Z,0
2017-11-23T05:56:52.691Z,0
2017-11-23T05:57:52.730Z,0
2017-11-23T05:58:52.687Z,0
2017-11-23T05:59:52.723Z,0
2017-11-23T06:00:52.703Z,0
2017-11-23T06:01:52.670Z,0
2017-11-23T06:02:52.818Z,0
2017-11-23T06:03:52.736Z,0
2017-11-23T06:04:52.763Z,0
2017-11-23T06:05:52.748Z,0
2017-11-23T06:06:52.690Z,0
2017-11-23T06:07:52.749Z,0
2017-11-23T06:08:52.647Z,0
2017-11-23T06:09:52.661Z,0
2017-11-23T06:10:52.682Z,0
2017-11-23T06:11:52.702Z,1.8
2017-11-23T06:12:52.810Z,0
2017-11-23T06:13:52.658Z,0
2017-11-23T06:14:52.667Z,6.6
2017-11-23T06:15:52.738Z,0
2017-11-23T06:16:52.714Z,0
2017-11-23T06:17:52.783Z,3.9
2017-11-23T06:18:52.663Z,0
2017-11-23T06:19:52.692Z,0
2017-11-23T06:20:52.683Z,6.6
2017-11-23T06:21:52.647Z,0
2017-11-23T06:22:52.737Z,1.8
2017-11-23T06:23:52.629Z,3.9
2017-11-23T06:24:52.741Z,0
2017-11-23T06:25:52.662Z,1.8
2017-11-23T06:26:52.694Z,0
2017-11-23T06:27:52.761Z,3.9
2017-11-23T06:28:52.680Z,3.9
2017-11-23T06:29:52.654Z,0
2017-11-23T06:30:52.629Z,0
2017-11-23T06:31:52.678Z,0
2017-11-23T06:32:52.689Z,0
2017-11-23T06:33:52.666Z,0
2017-11-23T06:34:52.768Z,0
2017-11-23T06:35:52.665Z,0
2017-11-23T06:36:52.642Z,0
2017-11-23T06:37:52.750Z,0
2017-11-23T06:38:52.688Z,0
2017-11-23T06:39:52.668Z,0
2017-11-23T06:40:52.673Z,0
2017-11-23T06:41:52.742Z,0
2017-11-23T06:42:52.730Z,0
2017-11-23T06:43:52.637Z,0
2017-11-23T06:44:52.648Z,0
2017-11-23T06:45:52.699Z,0
2017-11-23T06:46:52.655Z,0
2017-11-23T06:47:52.737Z,0
2017-11-23T06:48:52.727Z,1.8
2017-11-23T06:49:52.646Z,1.8
2017-11-23T06:50:52.634Z,0
2017-11-23T06:51:52.740Z,1.8
2017-11-23T06:52:52.681Z,0
2017-11-23T06:53:52.686Z,0
2017-11-23T06:54:52.660Z,0
2017-11-23T06:55:52.686Z,3.9
2017-11-23T06:56:52.681Z,0
2017-11-23T06:57:52.760Z,1.8
2017-11-23T06:58:52.672Z,0
2017-11-23T06:59:52.719Z,0
2017-11-23T07:00:52.630Z,1.8
2017-11-23T07:01:52.670Z,0
2017-11-23T07:02:52.773Z,1.8
2017-11-23T07:03:52.679Z,1.8
2017-11-23T07:04:52.678Z,1.8
2017-11-23T07:05:52.721Z,0
2017-11-23T07:06:52.623Z,0
2017-11-23T07:07:52.693Z,0
2017-11-23T07:08:52.630Z,0
2017-11-23T07:09:52.683Z,0
2017-11-23T07:10:52.695Z,0
2017-11-23T07:11:52.675Z,0
2017-11-23T07:12:52.725Z,0
2017-11-23T07:13:52.624Z,1.8
2017-11-23T07:14:52.695Z,0
2017-11-23T07:15:52.680Z,0
2017-11-23T07:16:52.697Z,0
2017-11-23T07:17:52.709Z,1.8
2017-11-23T07:18:52.669Z,3.9
2017-11-23T07:19:52.663Z,0
2017-11-23T07:20:52.645Z,6.6
2017-11-23T07:21:52.619Z,3.9
2017-11-23T07:22:52.792Z,3.9
2017-11-23T07:23:52.652Z,9.5
2017-11-23T07:24:52.676Z,1.8
2017-11-23T07:25:52.803Z,0
2017-11-23T07:26:52.639Z,0
2017-11-23T07:27:52.793Z,3.9
2017-11-23T07:28:52.645Z,6.6
2017-11-23T07:29:52.643Z,9.5
2017-11-23T07:30:52.655Z,3.9
2017-11-23T07:31:52.668Z,18.3
2017-11-23T07:32:52.781Z,3.9
2017-11-23T07:33:52.660Z,6.6
2017-11-23T07:34:52.646Z,3.9
2017-11-23T07:35:52.659Z,9.5
2017-11-23T07:36:52.625Z,0
2017-11-23T07:37:52.657Z,0
2017-11-23T07:38:52.696Z,15.4
2017-11-23T07:39:52.632Z,1.8
2017-11-23T07:41:12.447Z,0
2017-11-23T07:41:52.655Z,1.8
2017-11-23T07:42:52.624Z,1.8
2017-11-23T07:43:52.678Z,15.4
2017-11-23T07:44:52.608Z,3.9
2017-11-23T07:45:52.665Z,6.6
2017-11-23T07:46:52.650Z,6.6
2017-11-23T07:47:52.640Z,3.9
2017-11-23T07:48:52.668Z,0
2017-11-23T07:49:52.621Z,1.8
2017-11-23T07:50:52.639Z,3.9
2017-11-23T07:51:52.654Z,0
2017-11-23T07:52:52.710Z,9.5
2017-11-23T07:53:52.625Z,15.4
2017-11-23T07:55:27.294Z,1.8
2017-11-23T07:55:52.651Z,1.8
2017-11-23T07:56:52.616Z,6.6
2017-11-23T07:57:52.649Z,0
2017-11-23T07:58:52.724Z,0
2017-11-23T07:59:52.610Z,0
2017-11-23T08:00:52.620Z,0
2017-11-23T08:01:52.618Z,1.8
2017-11-23T08:02:52.659Z,3.9
2017-11-23T08:03:52.647Z,1.8
2017-11-23T08:04:52.625Z,1.8
2017-11-23T08:05:52.634Z,1.8
2017-11-23T08:06:52.633Z,0
2017-11-23T08:07:52.635Z,0
2017-11-23T08:08:52.689Z,0
2017-11-23T08:09:52.608Z,0
2017-11-23T08:10:53.276Z,1.8
2017-11-23T08:11:52.681Z,0
2017-11-23T08:12:52.615Z,0
2017-11-23T08:13:52.728Z,0
2017-11-23T08:14:52.679Z,0
2017-11-23T08:15:52.637Z,0
2017-11-23T08:16:52.582Z,0
2017-11-23T08:17:52.638Z,0
2017-11-23T08:18:52.855Z,0
2017-11-23T08:19:52.633Z,0
2017-11-23T08:20:52.607Z,0
2017-11-23T08:21:52.698Z,0
2017-11-23T08:22:52.608Z,1.8
2017-11-23T08:23:52.720Z,0
2017-11-23T08:24:52.629Z,0
2017-11-23T08:25:52.621Z,0
2017-11-23T08:26:52.625Z,0
2017-11-23T08:27:52.610Z,0
2017-11-23T08:28:52.730Z,0
2017-11-23T08:29:52.618Z,0
2017-11-23T08:30:52.639Z,0
2017-11-23T08:31:52.628Z,0
2017-11-23T08:32:52.596Z,0
2017-11-23T08:33:52.695Z,0
2017-11-23T08:34:52.643Z,0
2017-11-23T08:35:52.742Z,0
2017-11-23T08:36:52.613Z,1.8
2017-11-23T08:37:52.630Z,6.6
2017-11-23T08:38:52.684Z,1.8
2017-11-23T08:39:52.696Z,0
2017-11-23T08:40:52.594Z,0
2017-11-23T08:41:52.671Z,0
2017-11-23T08:42:53.197Z,0
2017-11-23T08:43:52.723Z,0
2017-11-23T08:44:52.573Z,0
2017-11-23T08:45:52.683Z,3.9
2017-11-23T08:46:52.643Z,0
2017-11-23T08:47:52.660Z,0
2017-11-23T08:48:52.700Z,1.8
2017-11-23T08:49:52.626Z,1.8
2017-11-23T08:50:52.637Z,1.8
2017-11-23T08:51:52.648Z,0
2017-11-23T08:52:52.597Z,1.8
2017-11-23T08:53:52.627Z,0
2017-11-23T08:54:52.621Z,3.9
2017-11-23T08:55:52.629Z,6.6
2017-11-23T08:56:52.622Z,0
2017-11-23T08:57:52.600Z,1.8
2017-11-23T08:58:52.683Z,0
2017-11-23T08:59:53.309Z,1.8
2017-11-23T09:00:52.600Z,1.8
2017-11-23T09:01:52.627Z,3.9
2017-11-23T09:02:52.592Z,0
2017-11-23T09:03:52.689Z,9.5
2017-11-23T09:04:52.612Z,1.8
2017-11-23T09:05:52.630Z,1.8
2017-11-23T09:06:52.671Z,0
2017-11-23T09:07:52.626Z,1.8
2017-11-23T09:08:52.722Z,0
2017-11-23T09:09:52.618Z,0
2017-11-23T09:10:52.592Z,0
2017-11-23T09:11:52.594Z,1.8
2017-11-23T09:12:52.658Z,3.9
2017-11-23T09:13:52.655Z,0
2017-11-23T09:14:52.601Z,0
2017-11-23T09:15:52.627Z,3.9
2017-11-23T09:16:52.681Z,1.8
2017-11-23T09:17:52.605Z,1.8
2017-11-23T09:18:52.644Z,0
2017-11-23T09:19:52.638Z,3.9
2017-11-23T09:20:52.586Z,1.8
2017-11-23T09:21:52.580Z,0
2017-11-23T09:22:52.656Z,0
2017-11-23T09:23:52.664Z,3.9
2017-11-23T09:24:52.676Z,0
2017-11-23T09:25:52.628Z,1.8
2017-11-23T09:26:52.695Z,0
2017-11-23T09:27:52.595Z,0
2017-11-23T09:28:52.696Z,0
2017-11-23T09:29:52.651Z,3.9
2017-11-23T09:30:52.637Z,1.8
2017-11-23T09:31:52.580Z,1.8
2017-11-23T09:32:52.645Z,3.9
2017-11-23T09:33:52.723Z,0
2017-11-23T09:34:52.603Z,0
2017-11-23T09:35:52.627Z,3.9
2017-11-23T09:36:52.669Z,3.9
2017-11-23T09:37:52.666Z,1.8
2017-11-23T09:38:52.705Z,0
2017-11-23T09:39:52.665Z,1.8
2017-11-23T09:40:52.577Z,6.6
2017-11-23T09:41:52.667Z,1.8
2017-11-23T09:42:52.636Z,0
2017-11-23T09:43:52.672Z,3.9
2017-11-23T09:44:52.588Z,3.9
2017-11-23T09:45:52.677Z,9.5
2017-11-23T09:46:52.644Z,1.8
2017-11-23T09:47:52.659Z,3.9
2017-11-23T09:48:52.637Z,9.5
2017-11-23T09:49:52.585Z,1.8
2017-11-23T09:50:52.734Z,0
2017-11-23T09:51:52.564Z,3.9
2017-11-23T09:52:52.622Z,1.8
2017-11-23T09:53:52.667Z,3.9
2017-11-23T09:54:52.667Z,1.8
2017-11-23T09:55:52.594Z,3.9
2017-11-23T09:56:52.595Z,1.8
2017-11-23T09:57:52.640Z,1.8
2017-11-23T09:58:52.673Z,0
2017-11-23T09:59:52.622Z,0
2017-11-23T10:00:52.614Z,1.8
2017-11-23T10:01:52.685Z,0
2017-11-23T10:02:52.683Z,1.8
2017-11-23T10:03:52.685Z,1.8
2017-11-23T10:04:52.597Z,1.8
2017-11-23T10:05:52.589Z,1.8
2017-11-23T10:06:52.664Z,3.9
2017-11-23T10:07:52.618Z,6.6
2017-11-23T10:08:52.694Z,3.9
2017-11-23T10:09:52.620Z,3.9
2017-11-23T10:10:52.596Z,1.8
2017-11-23T10:11:52.580Z,6.6
2017-11-23T10:12:52.577Z,3.9
2017-11-23T10:13:52.697Z,6.6
2017-11-23T10:14:52.602Z,6.6
2017-11-23T10:15:52.620Z,1.8
2017-11-23T10:16:53.194Z,12.4
2017-11-23T10:17:52.677Z,3.9
2017-11-23T10:18:52.655Z,6.6
2017-11-23T10:19:52.613Z,3.9
2017-11-23T10:20:52.645Z,3.9
2017-11-23T10:21:52.557Z,12.4
2017-11-23T10:22:52.645Z,9.5
2017-11-23T10:23:52.657Z,6.6
2017-11-23T10:24:52.613Z,6.6
2017-11-23T10:25:52.582Z,3.9
2017-11-23T10:26:52.586Z,6.6
2017-11-23T10:27:52.679Z,6.6
2017-11-23T10:28:52.642Z,3.9
2017-11-23T10:29:52.590Z,15.4
2017-11-23T10:30:52.617Z,1.8
2017-11-23T10:31:52.657Z,0
2017-11-23T10:32:52.578Z,1.8
2017-11-23T10:33:52.666Z,0
2017-11-23T10:34:52.613Z,0
2017-11-23T10:35:52.568Z,0
2017-11-23T10:36:52.613Z,0
2017-11-23T10:37:52.601Z,1.8
2017-11-23T10:38:52.681Z,3.9
2017-11-23T10:39:52.589Z,0
2017-11-23T10:40:52.594Z,0
2017-11-23T10:41:52.605Z,1.8
2017-11-23T10:42:52.597Z,0
2017-11-23T10:43:52.651Z,0
2017-11-23T10:44:52.578Z,0
2017-11-23T10:45:52.625Z,0
2017-11-23T10:46:52.595Z,0
2017-11-23T10:47:52.585Z,0
2017-11-23T10:48:52.721Z,0
2017-11-23T10:49:52.624Z,0
2017-11-23T10:50:52.612Z,1.8
2017-11-23T10:51:52.615Z,0
2017-11-23T10:52:52.659Z,3.9
2017-11-23T10:53:52.659Z,1.8
2017-11-23T10:54:52.667Z,3.9
2017-11-23T10:55:52.569Z,1.8
2017-11-23T10:56:52.599Z,0
2017-11-23T10:57:52.637Z,0
2017-11-23T10:58:52.637Z,0
2017-11-23T10:59:52.616Z,0
2017-11-23T11:00:52.646Z,0
2017-11-23T11:01:53.298Z,0
2017-11-23T11:07:15.264Z,0
2017-11-23T11:07:52.561Z,0
2017-11-23T11:08:52.582Z,3.9
2017-11-23T11:09:52.644Z,0
2017-11-23T11:10:52.637Z,0
2017-11-23T11:11:52.543Z,0
2017-11-23T11:12:52.622Z,3.9
2017-11-23T11:13:52.597Z,0
2017-11-23T11:14:52.730Z,0
2017-11-23T11:15:52.606Z,0
2017-11-23T11:16:52.602Z,0
2017-11-23T11:17:52.574Z,0
2017-11-23T11:18:52.560Z,0
2017-11-23T11:20:27.304Z,3.9
2017-11-23T11:20:52.583Z,3.9
2017-11-23T11:21:52.589Z,3.9
2017-11-23T11:22:52.564Z,3.9
2017-11-23T11:23:52.585Z,18.3
2017-11-23T11:24:52.651Z,1.8
2017-11-23T11:25:52.572Z,0
2017-11-23T11:26:52.581Z,1.8
2017-11-23T11:27:52.607Z,0
2017-11-23T11:28:52.591Z,0
2017-11-23T11:29:52.640Z,0
2017-11-23T11:30:52.623Z,0
2017-11-23T11:31:52.634Z,3.9
2017-11-23T11:32:52.600Z,0
2017-11-23T11:33:52.598Z,9.5
2017-11-23T11:34:52.666Z,3.9
2017-11-23T11:35:52.582Z,0
2017-11-23T11:36:52.628Z,3.9
2017-11-23T11:37:52.554Z,0
2017-11-23T11:38:52.591Z,6.6
2017-11-23T11:39:52.719Z,15.4
2017-11-23T11:40:52.600Z,3.9
2017-11-23T11:41:52.574Z,1.8
2017-11-23T11:42:52.599Z,3.9
2017-11-23T11:43:53.099Z,1.8
2017-11-23T11:44:52.685Z,0
2017-11-23T11:45:52.569Z,6.6
2017-11-23T11:46:52.584Z,3.9
2017-11-23T11:47:52.579Z,3.9
2017-11-23T11:48:52.568Z,3.9
2017-11-23T11:49:52.617Z,0
2017-11-23T11:50:52.648Z,6.6
2017-11-23T11:51:52.609Z,0
2017-11-23T11:52:52.583Z,0
2017-11-23T11:53:52.558Z,1.8
2017-11-23T11:54:52.629Z,1.8
2017-11-23T11:55:53.248Z,1.8
2017-11-23T11:56:52.602Z,1.8
2017-11-23T11:57:52.576Z,0
2017-11-23T11:58:52.580Z,0
2017-11-23T11:59:52.623Z,1.8
2017-11-23T12:00:52.581Z,1.8
2017-11-23T12:01:52.581Z,6.6
2017-11-23T12:02:52.603Z,1.8
2017-11-23T12:03:52.612Z,0
2017-11-23T12:04:52.711Z,1.8
2017-11-23T12:05:52.582Z,3.9
2017-11-23T12:06:52.517Z,0
2017-11-23T12:07:52.581Z,6.6
2017-11-23T12:08:52.575Z,1.8
2017-11-23T12:09:52.719Z,1.8
2017-11-23T12:10:52.579Z,3.9
2017-11-23T12:11:52.607Z,0
2017-11-23T12:12:52.594Z,0
2017-11-23T12:13:53.047Z,6.6
2017-11-23T12:14:52.689Z,0
2017-11-23T12:15:53.144Z,0
2017-11-23T12:16:52.648Z,9.5
2017-11-23T12:17:52.585Z,9.5
2017-11-23T12:18:52.650Z,9.5
2017-11-23T12:19:52.624Z,9.5
2017-11-23T12:20:52.582Z,1.8
2017-11-23T12:21:52.550Z,12.4
2017-11-23T12:22:52.555Z,18.3
2017-11-23T12:23:52.640Z,9.5
2017-11-23T12:24:52.584Z,6.6
2017-11-23T12:25:52.565Z,6.6
2017-11-23T12:26:52.559Z,3.9
2017-11-23T12:27:52.545Z,3.9
2017-11-23T12:28:52.558Z,18.3
2017-11-23T12:29:52.620Z,9.5
2017-11-23T12:30:52.610Z,9.5
2017-11-23T12:31:52.624Z,27.3
2017-11-23T12:32:52.595Z,27.3
2017-11-23T12:33:52.580Z,15.4
2017-11-23T12:34:52.682Z,9.5
2017-11-23T12:36:16.021Z,42.3
2017-11-23T12:37:16.062Z,30.3
2017-11-23T12:38:16.030Z,27.3
2017-11-23T12:39:16.018Z,12.4
2017-11-23T12:40:16.053Z,9.5
2017-11-23T12:41:16.040Z,12.4
2017-11-23T12:42:15.994Z,21.3
2017-11-23T12:43:16.086Z,15.4
2017-11-23T12:44:16.020Z,36.3
2017-11-23T12:45:16.151Z,12.4
2017-11-23T12:46:16.817Z,15.4
2017-11-23T12:47:16.090Z,27.3
2017-11-23T12:48:16.013Z,24.3
2017-11-23T12:49:16.048Z,36.3
2017-11-23T12:50:16.083Z,3.9
2017-11-23T12:51:16.094Z,39.3
2017-11-23T12:52:16.700Z,36.3
2017-11-23T12:53:16.005Z,36.3
2017-11-23T12:54:15.996Z,33.3
2017-11-23T12:55:16.091Z,21.3
2017-11-23T12:56:16.622Z,36.3
2017-11-23T12:57:16.001Z,21.3
2017-11-23T12:58:16.025Z,21.3
2017-11-23T12:59:15.988Z,15.4
2017-11-23T13:00:16.054Z,30.3
2017-11-23T13:01:16.042Z,33.3
2017-11-23T13:02:16.012Z,33.3
2017-11-23T13:03:16.075Z,36.3
2017-11-23T13:04:16.054Z,12.4
2017-11-23T13:05:16.085Z,24.3
2017-11-23T13:06:16.026Z,15.4
2017-11-23T13:07:17.014Z,21.3
2017-11-23T13:08:16.041Z,30.3
2017-11-23T13:09:15.984Z,9.5
2017-11-23T13:10:16.106Z,12.4
2017-11-23T13:11:16.025Z,18.3
2017-11-23T13:12:16.067Z,18.3
2017-11-23T13:13:16.020Z,48.3
2017-11-23T13:14:16.087Z,15.4
2017-11-23T13:15:16.095Z,36.3
2017-11-23T13:16:16.109Z,33.3
2017-11-23T13:17:16.045Z,48.3
2017-11-23T13:18:16.030Z,9.5
2017-11-23T13:19:15.992Z,18.3
2017-11-23T13:20:16.043Z,12.4
2017-11-23T13:21:15.996Z,3.9
2017-11-23T13:22:15.990Z,27.3
2017-11-23T13:23:16.089Z,18.3
2017-11-23T13:24:16.071Z,21.3
2017-11-23T13:25:16.062Z,15.4
2017-11-23T13:26:16.078Z,51.3
2017-11-23T13:27:16.089Z,12.4
2017-11-23T13:28:16.027Z,15.4
2017-11-23T13:29:16.044Z,39.3
2017-11-23T13:30:16.053Z,15.4
2017-11-23T13:31:16.229Z,18.3
2017-11-23T13:32:16.022Z,24.3
2017-11-23T13:33:15.980Z,27.3
2017-11-23T13:34:16.019Z,21.3
2017-11-23T13:35:16.070Z,30.3
2017-11-23T13:36:16.031Z,30.3
2017-11-23T13:37:16.096Z,18.3
2017-11-23T13:38:16.089Z,21.3
2017-11-23T13:39:16.511Z,24.3
2017-11-23T13:40:16.089Z,39.3
2017-11-23T13:41:15.986Z,24.3
2017-11-23T13:42:16.016Z,27.3
2017-11-23T13:43:16.027Z,12.4
2017-11-23T13:44:16.001Z,15.4
2017-11-23T13:45:16.642Z,21.3
2017-11-23T13:46:16.011Z,30.3
2017-11-23T13:47:16.044Z,24.3
2017-11-23T13:48:16.078Z,42.3
2017-11-23T13:49:16.001Z,42.3
2017-11-23T13:50:16.128Z,27.3
2017-11-23T13:51:16.015Z,39.3
2017-11-23T13:52:16.043Z,27.3
2017-11-23T13:53:16.007Z,24.3
2017-11-23T13:54:15.990Z,9.5
2017-11-23T13:55:16.053Z,21.3
2017-11-23T13:56:17.054Z,18.3
2017-11-23T13:57:15.997Z,27.3
2017-11-23T13:58:15.992Z,12.4
2017-11-23T13:59:16.021Z,36.3
2017-11-23T14:00:16.049Z,30.3
2017-11-23T14:01:16.079Z,18.3
2017-11-23T14:02:15.966Z,36.3
2017-11-23T14:03:18.705Z,18.3
2017-11-23T14:04:17.429Z,30.3
2017-11-23T14:05:16.467Z,18.3
2017-11-23T14:06:16.239Z,30.3
2017-11-23T14:07:16.238Z,45.3
2017-11-23T14:08:16.931Z,24.3
2017-11-23T14:09:16.747Z,15.4
2017-11-23T14:10:16.252Z,24.3
2017-11-23T14:11:16.163Z,15.4
2017-11-23T14:12:16.140Z,12.4
2017-11-23T14:13:16.129Z,21.3
2017-11-23T14:14:16.127Z,24.3
2017-11-23T14:15:16.043Z,48.3
2017-11-23T14:16:16.022Z,21.3
2017-11-23T14:17:15.994Z,54.3
2017-11-23T14:18:15.982Z,21.3
2017-11-23T14:19:16.020Z,18.3
2017-11-23T14:20:16.143Z,18.3
2017-11-23T14:21:16.016Z,30.3
2017-11-23T14:22:15.993Z,21.3